createdAt,value
2023-02-15T00:00:13.214Z,2.60
2023-02-15T00:02:40.670Z,2.50
2023-02-15T00:05:09.298Z,2.50
2023-02-15T00:07:36.758Z,2.50
2023-02-15T00:10:05.122Z,2.50
2023-02-15T00:12:32.701Z,2.50
2023-02-15T00:15:00.152Z,2.40
2023-02-15T00:17:30.822Z,2.40
2023-02-15T00:19:58.264Z,2.40
2023-02-15T00:22:27.173Z,2.40
2023-02-15T00:24:54.649Z,2.40
2023-02-15T00:27:22.321Z,2.40
2023-02-15T00:29:49.945Z,2.40
2023-02-15T00:32:17.421Z,2.30
2023-02-15T00:34:44.955Z,2.20
2023-02-15T00:37:12.378Z,2.20
2023-02-15T00:39:39.856Z,2.20
2023-02-15T00:42:07.447Z,2.30
2023-02-15T00:44:35.165Z,2.30
2023-02-15T00:47:02.705Z,2.30
2023-02-15T00:49:30.209Z,2.30
2023-02-15T00:51:57.726Z,2.80
2023-02-15T00:54:25.224Z,3.00
2023-02-15T00:56:52.610Z,3.20
2023-02-15T00:59:20.053Z,3.90
2023-02-15T01:01:48.925Z,3.90
2023-02-15T01:04:16.433Z,3.90
2023-02-15T01:06:44.008Z,4.20
2023-02-15T01:09:11.602Z,4.60
2023-02-15T01:11:39.063Z,4.20
2023-02-15T01:14:06.578Z,3.70
2023-02-15T01:16:34.151Z,3.50
2023-02-15T01:19:03.709Z,3.00
2023-02-15T01:21:35.381Z,2.90
2023-02-15T01:24:04.013Z,2.60
2023-02-15T01:26:31.688Z,2.50
2023-02-15T01:28:59.795Z,2.40
2023-02-15T01:31:27.365Z,2.30
2023-02-15T01:33:54.900Z,2.30
2023-02-15T01:36:22.484Z,2.10
2023-02-15T01:38:50.457Z,2.30
2023-02-15T01:41:30.575Z,2.60
2023-02-15T01:44:00.680Z,2.80
2023-02-15T01:46:44.181Z,3.00
2023-02-15T01:49:17.810Z,2.90
2023-02-15T01:51:47.282Z,2.50
2023-02-15T01:54:36.802Z,2.40
2023-02-15T01:57:14.634Z,2.10
2023-02-15T01:59:46.733Z,2.00
2023-02-15T02:02:16.011Z,2.10
2023-02-15T02:04:49.920Z,2.10
2023-02-15T02:07:23.509Z,2.20
2023-02-15T02:09:51.598Z,2.00
2023-02-15T02:12:21.071Z,1.90
2023-02-15T02:14:49.794Z,1.80
2023-02-15T02:17:33.164Z,1.80
2023-02-15T02:20:09.508Z,1.90
2023-02-15T02:22:58.114Z,1.90
2023-02-15T02:25:28.560Z,1.90
2023-02-15T02:28:07.979Z,1.70
2023-02-15T02:30:49.982Z,1.70
2023-02-15T02:33:26.343Z,1.90
2023-02-15T02:36:11.558Z,2.60
2023-02-15T02:38:46.467Z,2.70
2023-02-15T02:41:42.844Z,2.50
2023-02-15T02:44:23.056Z,2.20
2023-02-15T02:46:55.346Z,2.10
2023-02-15T02:49:38.035Z,2.00
2023-02-15T02:52:27.414Z,2.10
2023-02-15T02:54:56.064Z,2.50
2023-02-15T02:57:25.242Z,3.10
2023-02-15T02:59:55.106Z,3.20
2023-02-15T03:02:28.708Z,3.10
2023-02-15T03:05:04.714Z,3.10
2023-02-15T03:07:35.118Z,3.80
2023-02-15T03:10:05.781Z,4.30
2023-02-15T03:12:36.786Z,4.60
2023-02-15T03:15:54.963Z,3.70
2023-02-15T03:18:29.138Z,2.90
2023-02-15T03:20:57.544Z,2.40
2023-02-15T03:23:28.628Z,2.50
2023-02-15T03:26:05.881Z,2.40
2023-02-15T03:28:45.040Z,2.20
2023-02-15T03:31:17.183Z,2.10
2023-02-15T03:34:10.861Z,2.10
2023-02-15T03:36:56.049Z,2.30
2023-02-15T03:39:39.273Z,2.50
2023-02-15T03:42:12.810Z,2.80
2023-02-15T03:44:48.200Z,3.00
2023-02-15T03:47:20.539Z,2.60
2023-02-15T03:50:25.864Z,2.20
2023-02-15T03:52:56.042Z,2.10
2023-02-15T03:55:23.830Z,2.00
2023-02-15T03:58:09.851Z,1.80
2023-02-15T04:01:00.870Z,1.70
2023-02-15T04:03:34.724Z,1.60
2023-02-15T04:06:04.109Z,1.60
2023-02-15T04:08:50.261Z,1.50
2023-02-15T04:11:17.893Z,1.50
2023-02-15T04:13:45.517Z,1.70
2023-02-15T04:16:13.127Z,1.60
2023-02-15T04:19:01.432Z,1.70
2023-02-15T04:21:50.046Z,1.60
2023-02-15T04:24:35.912Z,1.50
2023-02-15T04:27:05.308Z,1.50
2023-02-15T04:29:33.394Z,1.40
2023-02-15T04:32:03.481Z,1.30
2023-02-15T04:34:30.945Z,1.30
2023-02-15T04:36:58.349Z,1.40
2023-02-15T04:39:25.906Z,1.30
2023-02-15T04:41:53.351Z,1.20
2023-02-15T04:44:20.802Z,1.20
2023-02-15T04:46:48.318Z,1.20
2023-02-15T04:49:15.925Z,1.10
2023-02-15T04:51:43.327Z,1.00
2023-02-15T04:54:10.723Z,1.10
2023-02-15T04:56:39.825Z,1.10
2023-02-15T04:59:07.368Z,1.00
2023-02-15T05:01:34.806Z,1.00
2023-02-15T05:04:02.612Z,1.20
2023-02-15T05:06:30.368Z,1.50
2023-02-15T05:09:00.237Z,1.60
2023-02-15T05:11:28.093Z,1.50
2023-02-15T05:13:55.597Z,1.30
2023-02-15T05:16:23.212Z,1.30
2023-02-15T05:18:50.655Z,1.30
2023-02-15T05:21:18.099Z,1.60
2023-02-15T05:23:45.631Z,1.60
2023-02-15T05:26:37.179Z,1.80
2023-02-15T05:29:05.511Z,2.00
2023-02-15T05:31:34.186Z,2.30
2023-02-15T05:34:02.208Z,2.10
2023-02-15T05:36:29.915Z,1.90
2023-02-15T05:38:57.389Z,1.90
2023-02-15T05:41:25.235Z,1.90
2023-02-15T05:43:52.736Z,2.10
2023-02-15T05:46:20.191Z,1.70
2023-02-15T05:48:47.735Z,1.80
2023-02-15T05:51:16.882Z,1.60
2023-02-15T05:53:44.529Z,1.30
2023-02-15T05:56:13.193Z,1.20
2023-02-15T05:58:42.690Z,1.20
2023-02-15T06:01:10.182Z,1.10
2023-02-15T06:03:38.107Z,1.00
2023-02-15T06:06:05.939Z,1.00
2023-02-15T06:08:34.377Z,1.00
2023-02-15T06:11:02.079Z,1.10
2023-02-15T06:13:30.184Z,0.80
2023-02-15T06:15:57.681Z,0.90
2023-02-15T06:18:25.383Z,0.90
2023-02-15T06:20:52.814Z,0.80
2023-02-15T06:23:20.300Z,0.90
2023-02-15T06:25:48.055Z,1.00
2023-02-15T06:28:15.671Z,1.10
2023-02-15T06:30:43.183Z,1.00
2023-02-15T06:33:10.754Z,0.80
2023-02-15T06:35:38.349Z,0.90
2023-02-15T06:38:05.792Z,1.00
2023-02-15T06:40:33.264Z,1.20
2023-02-15T06:43:00.688Z,1.20
2023-02-15T06:45:28.171Z,1.10
2023-02-15T06:47:55.604Z,1.40
2023-02-15T06:50:23.134Z,1.50
2023-02-15T06:52:50.551Z,1.50
2023-02-15T06:55:18.120Z,1.50
2023-02-15T06:57:45.558Z,1.50
2023-02-15T07:00:13.826Z,1.60
2023-02-15T07:02:41.317Z,1.60
2023-02-15T07:05:09.018Z,1.60
2023-02-15T07:07:36.651Z,1.70
2023-02-15T07:10:04.728Z,1.80
2023-02-15T07:12:45.284Z,1.70
2023-02-15T07:15:18.291Z,1.90
2023-02-15T07:17:45.884Z,1.90
2023-02-15T07:20:17.658Z,2.10
2023-02-15T07:22:45.480Z,2.10
2023-02-15T07:25:13.753Z,2.20
2023-02-15T07:27:41.337Z,2.40
2023-02-15T07:30:11.711Z,2.60
2023-02-15T07:32:59.213Z,3.00
2023-02-15T07:35:26.989Z,3.20
2023-02-15T07:37:55.310Z,3.30
2023-02-15T07:40:24.475Z,3.20
2023-02-15T07:42:54.276Z,3.40
2023-02-15T07:45:23.126Z,3.80
2023-02-15T07:47:50.686Z,4.00
2023-02-15T07:50:18.263Z,4.30
2023-02-15T07:52:45.666Z,4.40
2023-02-15T07:55:14.050Z,4.60
2023-02-15T07:57:46.141Z,4.60
2023-02-15T08:00:14.827Z,4.70
2023-02-15T08:02:42.526Z,5.00
2023-02-15T08:05:10.172Z,5.10
2023-02-15T08:07:37.621Z,5.30
2023-02-15T08:10:05.603Z,5.40
2023-02-15T08:12:33.096Z,5.60
2023-02-15T08:15:00.606Z,5.80
2023-02-15T08:17:28.033Z,6.10
2023-02-15T08:19:55.508Z,6.30
2023-02-15T08:22:22.962Z,6.50
2023-02-15T08:24:50.355Z,6.80
2023-02-15T08:27:17.746Z,6.90
2023-02-15T08:29:45.113Z,7.10
2023-02-15T08:32:13.978Z,7.30
2023-02-15T08:34:42.812Z,7.30
2023-02-15T08:37:10.550Z,7.40
2023-02-15T08:39:38.015Z,7.60
2023-02-15T08:42:05.530Z,7.70
2023-02-15T08:44:32.979Z,7.80
2023-02-15T08:47:04.544Z,8.20
2023-02-15T08:49:32.912Z,8.40
2023-02-15T08:52:00.856Z,8.40
2023-02-15T08:54:28.303Z,8.40
2023-02-15T08:56:55.682Z,8.60
2023-02-15T08:59:25.839Z,8.70
2023-02-15T09:01:54.746Z,9.00
2023-02-15T09:04:23.701Z,9.10
2023-02-15T09:06:51.530Z,9.30
2023-02-15T09:09:19.821Z,9.50
2023-02-15T09:11:56.739Z,9.50
2023-02-15T09:14:27.705Z,9.40
2023-02-15T09:16:55.540Z,9.50
2023-02-15T09:19:24.022Z,9.60
2023-02-15T09:21:52.467Z,9.50
2023-02-15T09:24:19.889Z,9.60
2023-02-15T09:26:49.173Z,9.60
2023-02-15T09:29:17.997Z,9.70
2023-02-15T09:31:51.038Z,10.00
2023-02-15T09:34:21.963Z,10.00
2023-02-15T09:36:50.082Z,9.90
2023-02-15T09:39:18.926Z,9.90
2023-02-15T09:42:07.950Z,9.90
2023-02-15T09:45:05.870Z,10.00
2023-02-15T09:47:55.065Z,10.10
2023-02-15T09:50:59.516Z,10.20
2023-02-15T09:53:33.185Z,10.30
2023-02-15T09:56:22.216Z,10.60
2023-02-15T09:58:52.663Z,10.80
2023-02-15T10:01:38.359Z,10.90
2023-02-15T10:04:17.808Z,11.00
2023-02-15T10:07:17.412Z,11.10
2023-02-15T10:10:09.469Z,11.10
2023-02-15T10:12:43.679Z,11.00
2023-02-15T10:15:32.718Z,10.90
2023-02-15T10:18:18.214Z,11.10
2023-02-15T10:21:04.164Z,11.40
2023-02-15T10:23:52.689Z,11.60
2023-02-15T10:26:50.966Z,11.70
2023-02-15T10:29:50.718Z,11.60
2023-02-15T10:32:27.661Z,11.70
2023-02-15T10:35:01.135Z,11.70
2023-02-15T10:37:38.679Z,11.70
2023-02-15T10:40:21.187Z,11.70
2023-02-15T10:43:13.472Z,11.70
2023-02-15T10:46:02.930Z,11.70
2023-02-15T10:49:07.653Z,11.70
2023-02-15T10:51:58.990Z,11.80
2023-02-15T10:54:42.993Z,12.00
2023-02-15T10:57:37.214Z,11.80
2023-02-15T11:00:16.844Z,11.90
2023-02-15T11:02:56.642Z,11.90
2023-02-15T11:05:45.455Z,12.10
2023-02-15T11:08:13.341Z,12.10
2023-02-15T11:10:58.135Z,12.30
2023-02-15T11:13:29.376Z,12.30
2023-02-15T11:15:58.665Z,12.30
2023-02-15T11:18:26.088Z,12.30
2023-02-15T11:21:19.777Z,12.40
2023-02-15T11:23:48.345Z,12.30
2023-02-15T11:26:38.479Z,12.40
2023-02-15T11:29:11.656Z,12.70
2023-02-15T11:31:49.253Z,12.80
2023-02-15T11:34:30.587Z,13.00
2023-02-15T11:37:06.300Z,13.40
2023-02-15T11:39:38.166Z,13.40
2023-02-15T11:42:19.218Z,13.30
2023-02-15T11:45:08.497Z,13.40
2023-02-15T11:47:36.021Z,13.50
2023-02-15T11:50:03.985Z,13.90
2023-02-15T11:52:32.285Z,14.00
2023-02-15T11:54:59.714Z,14.10
2023-02-15T11:57:41.544Z,14.10
2023-02-15T12:00:15.241Z,14.20
2023-02-15T12:02:48.026Z,14.30
2023-02-15T12:05:23.112Z,14.20
2023-02-15T12:08:10.628Z,14.20
2023-02-15T12:10:56.441Z,14.20
2023-02-15T12:13:24.626Z,14.30
2023-02-15T12:15:55.101Z,14.40
2023-02-15T12:18:41.446Z,14.50
2023-02-15T12:21:14.492Z,14.60
2023-02-15T12:23:49.248Z,14.50
2023-02-15T12:26:35.430Z,14.50
2023-02-15T12:29:13.794Z,14.30
2023-02-15T12:31:46.006Z,14.40
2023-02-15T12:34:23.780Z,14.50
2023-02-15T12:36:59.115Z,14.50
2023-02-15T12:39:31.954Z,14.50
2023-02-15T12:42:04.647Z,14.40
2023-02-15T12:44:34.912Z,14.40
2023-02-15T12:47:17.482Z,14.70
2023-02-15T12:49:48.027Z,14.80
2023-02-15T12:52:26.487Z,14.70
2023-02-15T12:54:54.038Z,14.60
2023-02-15T12:57:32.152Z,14.70
2023-02-15T13:00:25.591Z,14.70
2023-02-15T13:02:55.502Z,14.70
2023-02-15T13:05:39.579Z,14.70
2023-02-15T13:08:17.736Z,14.70
2023-02-15T13:10:58.744Z,15.00
2023-02-15T13:13:30.355Z,15.20
2023-02-15T13:16:03.787Z,15.10
2023-02-15T13:18:39.788Z,14.90
2023-02-15T13:21:14.565Z,15.00
2023-02-15T13:23:49.418Z,14.90
2023-02-15T13:26:22.346Z,14.90
2023-02-15T13:29:06.345Z,15.00
2023-02-15T13:31:34.284Z,15.00
2023-02-15T13:34:11.039Z,15.10
2023-02-15T13:36:46.810Z,15.00
2023-02-15T13:39:26.603Z,15.00
2023-02-15T13:42:03.332Z,15.00
2023-02-15T13:44:52.242Z,15.10
2023-02-15T13:47:45.141Z,15.20
2023-02-15T13:51:03.439Z,15.40
2023-02-15T13:53:42.892Z,15.50
2023-02-15T13:56:41.716Z,15.30
2023-02-15T13:59:46.635Z,15.20
2023-02-15T14:02:35.171Z,14.90
2023-02-15T14:05:23.813Z,15.00
2023-02-15T14:08:02.327Z,15.10
2023-02-15T14:10:47.691Z,15.10
2023-02-15T14:13:33.528Z,15.00
2023-02-15T14:16:07.121Z,14.80
2023-02-15T14:18:43.184Z,15.20
2023-02-15T14:21:33.143Z,15.30
2023-02-15T14:24:15.656Z,15.40
2023-02-15T14:26:48.625Z,15.10
2023-02-15T14:29:30.244Z,14.90
2023-02-15T14:32:02.784Z,14.90
2023-02-15T14:34:53.744Z,14.90
2023-02-15T14:37:58.664Z,15.00
2023-02-15T14:40:47.851Z,15.30
2023-02-15T14:43:18.347Z,15.20
2023-02-15T14:46:09.582Z,15.30
2023-02-15T14:48:46.327Z,15.50
2023-02-15T14:51:39.821Z,15.40
2023-02-15T14:54:11.957Z,15.30
2023-02-15T14:56:42.166Z,15.10
2023-02-15T14:59:19.255Z,15.00
2023-02-15T15:02:04.337Z,15.10
2023-02-15T15:04:39.422Z,15.10
2023-02-15T15:07:22.672Z,15.00
2023-02-15T15:10:02.954Z,14.90
2023-02-15T15:12:33.337Z,14.90
2023-02-15T15:15:02.247Z,14.80
2023-02-15T15:17:32.743Z,14.70
2023-02-15T15:20:08.284Z,14.70
2023-02-15T15:22:37.479Z,14.60
2023-02-15T15:25:11.926Z,14.80
2023-02-15T15:27:52.030Z,14.80
2023-02-15T15:30:19.595Z,14.80
2023-02-15T15:32:56.352Z,14.80
2023-02-15T15:36:01.423Z,14.80
2023-02-15T15:39:02.686Z,14.80
2023-02-15T15:41:43.847Z,14.70
2023-02-15T15:44:50.935Z,14.60
2023-02-15T15:47:58.718Z,14.60
2023-02-15T15:50:33.522Z,14.50
2023-02-15T15:53:03.238Z,14.50
2023-02-15T15:55:33.172Z,14.50
2023-02-15T15:58:07.171Z,14.50
2023-02-15T16:00:40.785Z,14.40
2023-02-15T16:03:25.181Z,14.30
2023-02-15T16:05:56.247Z,14.20
2023-02-15T16:08:35.734Z,14.20
2023-02-15T16:11:26.361Z,14.00
2023-02-15T16:13:54.568Z,13.90
2023-02-15T16:16:30.117Z,13.80
2023-02-15T16:19:00.392Z,13.80
2023-02-15T16:21:34.905Z,13.70
2023-02-15T16:24:27.834Z,13.60
2023-02-15T16:27:16.988Z,13.40
2023-02-15T16:29:44.475Z,13.20
2023-02-15T16:32:24.216Z,13.10
2023-02-15T16:35:00.299Z,12.80
2023-02-15T16:37:33.010Z,12.60
2023-02-15T16:40:00.672Z,12.70
2023-02-15T16:42:28.234Z,12.70
2023-02-15T16:45:05.110Z,12.90
2023-02-15T16:47:37.758Z,13.00
2023-02-15T16:50:06.287Z,13.00
2023-02-15T16:52:33.804Z,13.10
2023-02-15T16:55:05.508Z,13.10
2023-02-15T16:57:39.040Z,12.90
2023-02-15T17:00:16.298Z,12.60
2023-02-15T17:03:14.090Z,12.40
2023-02-15T17:05:43.539Z,12.00
2023-02-15T17:08:27.124Z,11.90
2023-02-15T17:11:01.234Z,11.60
2023-02-15T17:13:29.469Z,11.40
2023-02-15T17:16:03.052Z,11.40
2023-02-15T17:18:32.327Z,11.40
2023-02-15T17:21:09.484Z,11.30
2023-02-15T17:23:52.187Z,10.90
2023-02-15T17:26:27.855Z,10.70
2023-02-15T17:29:00.434Z,10.70
2023-02-15T17:31:32.973Z,10.50
2023-02-15T17:34:02.254Z,10.30
2023-02-15T17:36:32.015Z,10.20
2023-02-15T17:38:59.485Z,10.20
2023-02-15T17:41:38.291Z,10.70
2023-02-15T17:44:08.476Z,10.70
2023-02-15T17:46:38.032Z,10.80
2023-02-15T17:49:06.114Z,10.60
2023-02-15T17:51:35.984Z,9.90
2023-02-15T17:54:36.227Z,9.70
2023-02-15T17:57:06.871Z,9.90
2023-02-15T17:59:34.251Z,10.50
2023-02-15T18:02:20.287Z,10.40
2023-02-15T18:05:06.430Z,9.80
2023-02-15T18:07:52.489Z,9.10
2023-02-15T18:10:39.134Z,8.70
2023-02-15T18:13:06.654Z,8.50
2023-02-15T18:15:35.324Z,9.00
2023-02-15T18:18:03.080Z,9.60
2023-02-15T18:20:37.035Z,9.10
2023-02-15T18:23:04.652Z,8.70
2023-02-15T18:25:32.284Z,8.60
2023-02-15T18:27:59.708Z,8.30
2023-02-15T18:30:27.509Z,8.00
2023-02-15T18:32:57.472Z,7.70
2023-02-15T18:35:28.830Z,7.50
2023-02-15T18:37:56.829Z,7.40
2023-02-15T18:40:27.897Z,7.20
2023-02-15T18:42:57.159Z,7.00
2023-02-15T18:45:33.278Z,6.90
2023-02-15T18:48:01.071Z,7.10
2023-02-15T18:50:33.593Z,7.40
2023-02-15T18:53:03.204Z,7.40
2023-02-15T18:55:33.029Z,7.30
2023-02-15T18:58:01.309Z,7.70
2023-02-15T19:00:34.353Z,8.20
2023-02-15T19:03:02.871Z,8.80
2023-02-15T19:05:32.229Z,9.00
2023-02-15T19:08:01.910Z,8.70
2023-02-15T19:10:31.637Z,8.80
2023-02-15T19:12:59.336Z,9.10
2023-02-15T19:15:30.320Z,9.40
2023-02-15T19:17:58.059Z,9.60
2023-02-15T19:20:42.314Z,9.80
2023-02-15T19:23:19.336Z,9.90
2023-02-15T19:25:48.195Z,9.90
2023-02-15T19:28:19.586Z,9.80
2023-02-15T19:30:47.234Z,9.20
2023-02-15T19:33:19.633Z,9.20
2023-02-15T19:35:52.420Z,9.20
2023-02-15T19:38:24.011Z,9.40
2023-02-15T19:40:51.790Z,9.40
2023-02-15T19:43:26.379Z,9.50
2023-02-15T19:45:54.338Z,9.40
2023-02-15T19:48:21.860Z,9.00
2023-02-15T19:50:49.693Z,8.80
2023-02-15T19:53:22.345Z,8.70
2023-02-15T19:55:50.944Z,8.90
2023-02-15T19:58:19.239Z,8.60
2023-02-15T20:00:51.340Z,8.40
2023-02-15T20:03:18.829Z,8.50
2023-02-15T20:05:46.972Z,7.80
2023-02-15T20:08:20.984Z,7.50
2023-02-15T20:10:48.860Z,7.60
2023-02-15T20:13:19.401Z,7.60
2023-02-15T20:15:47.705Z,7.90
2023-02-15T20:18:15.093Z,8.10
2023-02-15T20:20:48.295Z,8.30
2023-02-15T20:23:35.713Z,8.50
2023-02-15T20:26:18.404Z,8.60
2023-02-15T20:28:46.495Z,8.00
2023-02-15T20:31:20.473Z,7.30
2023-02-15T20:33:49.294Z,6.70
2023-02-15T20:36:20.190Z,6.40
2023-02-15T20:38:48.067Z,6.30
2023-02-15T20:41:36.241Z,6.40
2023-02-15T20:44:26.243Z,6.50
2023-02-15T20:46:56.521Z,6.30
2023-02-15T20:49:25.779Z,6.00
2023-02-15T20:51:55.054Z,6.10
2023-02-15T20:54:29.197Z,6.70
2023-02-15T20:56:57.306Z,6.90
2023-02-15T20:59:30.679Z,6.50
2023-02-15T21:02:17.433Z,5.80
2023-02-15T21:04:44.895Z,5.60
2023-02-15T21:07:17.043Z,5.40
2023-02-15T21:09:44.786Z,5.20
2023-02-15T21:12:17.537Z,5.10
2023-02-15T21:14:45.918Z,5.00
2023-02-15T21:17:15.389Z,4.90
2023-02-15T21:19:43.210Z,4.90
2023-02-15T21:22:15.834Z,4.90
2023-02-15T21:24:51.680Z,4.80
2023-02-15T21:27:19.662Z,4.90
2023-02-15T21:29:47.066Z,4.90
2023-02-15T21:32:14.704Z,4.80
2023-02-15T21:34:42.153Z,4.50
2023-02-15T21:37:31.713Z,4.50
2023-02-15T21:39:59.414Z,4.60
2023-02-15T21:42:46.349Z,4.70
2023-02-15T21:45:37.400Z,5.50
2023-02-15T21:48:05.096Z,6.10
2023-02-15T21:50:52.921Z,6.70
2023-02-15T21:53:32.369Z,6.40
2023-02-15T21:56:02.686Z,6.30
2023-02-15T21:58:32.995Z,6.50
2023-02-15T22:01:01.844Z,6.00
2023-02-15T22:03:37.915Z,5.60
2023-02-15T22:06:06.089Z,5.40
2023-02-15T22:08:34.027Z,5.10
2023-02-15T22:11:01.929Z,5.00
2023-02-15T22:13:32.162Z,4.90
2023-02-15T22:15:59.762Z,4.70
2023-02-15T22:18:33.000Z,4.70
2023-02-15T22:21:02.632Z,4.90
2023-02-15T22:23:30.650Z,4.80
2023-02-15T22:26:02.595Z,4.50
2023-02-15T22:28:37.258Z,4.40
2023-02-15T22:31:07.494Z,4.30
2023-02-15T22:33:35.253Z,4.30
2023-02-15T22:36:02.791Z,4.00
2023-02-15T22:38:30.344Z,4.00
2023-02-15T22:41:04.195Z,3.90
2023-02-15T22:43:40.658Z,3.90
2023-02-15T22:46:17.691Z,3.70
2023-02-15T22:48:47.643Z,3.70
2023-02-15T22:51:17.805Z,3.80
2023-02-15T22:53:45.517Z,3.70
2023-02-15T22:56:23.257Z,3.50
2023-02-15T22:58:50.905Z,3.50
2023-02-15T23:01:32.889Z,3.80
2023-02-15T23:04:03.255Z,4.30
2023-02-15T23:06:32.223Z,4.20
2023-02-15T23:09:00.889Z,3.90
2023-02-15T23:11:28.931Z,3.80
2023-02-15T23:13:56.562Z,3.70
2023-02-15T23:16:24.163Z,3.60
2023-02-15T23:18:52.190Z,3.50
2023-02-15T23:21:22.278Z,3.40
2023-02-15T23:23:52.997Z,3.30
2023-02-15T23:26:24.814Z,3.50
2023-02-15T23:28:52.920Z,3.80
2023-02-15T23:31:23.249Z,4.70
2023-02-15T23:33:52.677Z,5.40
2023-02-15T23:36:27.608Z,5.70
2023-02-15T23:38:57.133Z,5.80
2023-02-15T23:41:30.175Z,5.90
2023-02-15T23:44:03.817Z,6.00
2023-02-15T23:46:41.289Z,6.10
2023-02-15T23:49:15.914Z,6.20
2023-02-15T23:51:52.118Z,6.50
2023-02-15T23:54:23.238Z,6.60
2023-02-15T23:56:57.973Z,6.30
2023-02-15T23:59:28.891Z,5.80
